Syracuse, New York
Current Conditions -  °F | °C
As of 7:54 AM on Wednesday 22 Oct 2014 (Local Time) from KSYR Reporting Station
Haze Haze  
Wind Chill: 43°   Ceiling: 2500
Heat Index: 46°   Visibility: 6mi
Dew Point: 44°   Wind: 6mph
Humidity: 92%   Direction: 360°N
Pressure: 30.12"   Gusts: NA
Location:  43.05°N, 76.15°W
Report Text: KSYR 221154Z 36005KT 6SM BR SCT008 BKN025 OVC045 08/06 A3012 RMK SLP197 T00760064 10092 20074 57024
Loading
Personal Weather Stations






























Interactive Weather Map New forecast layout! Learn more

10-Day Weather Forecast

Advertisements
Track Severe Weather on mobile